Terminal Aerodrome Forecast
Issued by NWS

Home | Current Version | Previous Version | Text Only | Print | Product List | Glossary On
Versions: 1 2 3 4 5 6 7 8 9 10 11 12
000
FTUS44 KEPZ 272300 RRA
TAFTCS
TAF
KTCS 272338Z 2800/2824 04015G25KT P6SM VCSH FEW040 BKN070 BKN250
     FM280600 02011KT P6SM BKN060 BKN110 BKN250
     FM282100 05008KT P6SM SCT070 BKN110 BKN250=

USA.gov is the U.S. government's official web portal to all federal, state and local government web resources and services.